Terminal Aerodrome Forecast
Issued by NWS Wilmington, OH

Current Version | Previous Version | Graphics & Text | Print | Product List | Glossary On
Versions: 1 2 3 4 5 6 7 8 9 10 11 12 13 14 15 16 17 18 19 20 21 22 23 24 25
000
FTUS41 KILN 181100
TAFILN
TAF
KILN 181133Z 1812/1912 05007KT 2SM -RA BR OVC060
      TEMPO 1812/1813 1SM BR
     FM181400 05004KT 4SM HZ OVC020
     FM181800 04005KT 6SM HZ VCSH BKN035
     FM190100 03003KT P6SM BKN100
     FM190500 VRB03KT 5SM BR BKN250
     FM190800 00000KT 1SM BR FEW001 BKN250=

USA.gov is the U.S. government's official web portal to all federal, state and local government web resources and services.